Time;durP1;ratioP1;P1;durP2;ratioP2;P2;SDS_P1;SDS_P2;PMS_P1;PMS_P2;Temp;Humidity;BMP_temperature;BMP_pressure;BME280_temperature;BME280_humidity;BME280_pressure;Samples;Min_cycle;Max_cycle;Signal;HPM_P1;HPM_P2
2022/03/28 00:00:01;;;;;;;11.88;6.50;;;;;;;9.63;53.79;62993.38;5086828;28;20283;-78
2022/03/28 00:02:28;;;;;;;8.30;5.88;;;;;;;9.48;54.37;62975.81;5084243;28;20222;-78
2022/03/28 00:04:56;;;;;;;8.60;6.03;;;;;;;9.45;54.68;62974.75;5086288;28;20196;-78
2022/03/28 00:07:23;;;;;;;7.75;6.05;;;;;;;9.35;54.58;62962.91;5089134;28;20241;-77
2022/03/28 00:09:50;;;;;;;10.82;5.82;;;;;;;9.24;54.80;62951.53;5103725;28;20207;-77
2022/03/28 00:12:16;;;;;;;7.60;5.20;;;;;;;9.21;54.91;62950.47;5094487;28;20274;-78
2022/03/28 00:14:43;;;;;;;10.23;6.25;;;;;;;9.07;55.37;62928.88;5085979;28;20429;-78
2022/03/28 00:17:10;;;;;;;13.38;6.50;;;;;;;9.05;55.30;62936.44;5086013;28;20217;-78
2022/03/28 00:19:37;;;;;;;11.18;5.88;;;;;;;9.08;55.59;62931.94;5093197;28;20251;-78
2022/03/28 00:22:06;;;;;;;6.43;5.60;;;;;;;9.02;55.02;62930.81;5091204;28;20220;-79
2022/03/28 00:24:33;;;;;;;12.93;6.60;;;;;;;9.09;54.13;62936.00;5096399;28;20208;-79
2022/03/28 00:27:00;;;;;;;8.50;6.43;;;;;;;9.07;54.29;62931.44;5106456;28;20211;-79
2022/03/28 00:29:27;;;;;;;9.40;5.78;;;;;;;8.98;54.56;62926.69;5089651;28;20209;-80
2022/03/28 00:31:54;;;;;;;9.27;6.53;;;;;;;8.99;54.29;62928.22;5099787;28;20224;-79
2022/03/28 00:34:21;;;;;;;6.95;5.63;;;;;;;8.91;55.11;62919.44;5108048;28;20298;-79
2022/03/28 00:36:50;;;;;;;9.23;6.55;;;;;;;8.91;55.53;62919.44;5108874;28;20219;-79
2022/03/28 00:39:19;;;;;;;8.52;6.32;;;;;;;9.04;55.97;62933.38;5106208;28;20525;-79
2022/03/28 00:41:47;;;;;;;12.57;7.38;;;;;;;8.99;56.88;62925.69;5103524;28;20251;-80
2022/03/28 00:44:14;;;;;;;19.25;6.75;;;;;;;8.96;57.22;62925.13;5089966;28;20562;-80
2022/03/28 00:46:41;;;;;;;8.63;6.35;;;;;;;9.00;57.73;62923.66;5089985;28;20220;-79
2022/03/28 00:49:08;;;;;;;12.93;6.70;;;;;;;8.99;58.22;62925.19;5088030;28;20220;-79
2022/03/28 00:51:36;;;;;;;11.13;7.35;;;;;;;8.96;58.86;62924.59;5109693;28;20497;-78
2022/03/28 00:54:03;;;;;;;12.77;7.50;;;;;;;8.87;59.32;62910.75;5094069;28;20192;-80
2022/03/28 00:56:31;;;;;;;14.48;7.22;;;;;;;8.84;59.17;62917.28;5088109;28;20547;-80
2022/03/28 00:58:58;;;;;;;11.13;6.75;;;;;;;8.80;59.43;62906.03;5090964;28;20203;-79
2022/03/28 01:01:26;;;;;;;10.75;6.38;;;;;;;8.70;60.03;62895.72;5106529;28;20228;-79
2022/03/28 01:03:52;;;;;;;11.23;7.15;;;;;;;8.72;60.01;62895.25;5104664;28;20207;-79
2022/03/28 01:06:19;;;;;;;8.90;7.18;;;;;;;8.63;60.65;62888.47;5086295;28;20222;-80
2022/03/28 01:08:47;;;;;;;10.02;7.22;;;;;;;8.53;61.04;62880.16;5096915;28;20200;-78
2022/03/28 01:11:14;;;;;;;10.77;8.20;;;;;;;8.45;61.35;62869.38;5106346;28;20200;-79
2022/03/28 01:13:42;;;;;;;10.15;7.65;;;;;;;8.43;62.26;62865.28;5091662;28;20229;-79
2022/03/28 01:16:10;;;;;;;10.05;7.40;;;;;;;8.40;62.82;62869.81;5091473;28;20204;-78
2022/03/28 01:18:36;;;;;;;15.27;8.13;;;;;;;8.31;63.35;62859.97;5090763;28;20232;-78
2022/03/28 01:21:06;;;;;;;9.02;7.25;;;;;;;8.39;63.74;62866.22;5088283;28;20325;-79
2022/03/28 01:23:33;;;;;;;13.85;7.53;;;;;;;8.23;64.16;62854.25;5100777;28;20220;-78
2022/03/28 01:26:00;;;;;;;14.98;7.80;;;;;;;8.05;64.94;62829.09;5106225;28;20222;-79
2022/03/28 01:28:28;;;;;;;12.93;7.88;;;;;;;8.07;65.32;62833.69;5085240;28;20254;-79
2022/03/28 01:30:56;;;;;;;15.88;7.43;;;;;;;8.01;65.82;62827.47;5085164;28;20709;-79
2022/03/28 01:33:23;;;;;;;13.70;8.27;;;;;;;7.96;65.78;62814.72;5092020;28;20299;-80
2022/03/28 01:35:51;;;;;;;11.23;7.70;;;;;;;7.96;66.09;62819.78;5086210;28;20211;-79
2022/03/28 01:38:20;;;;;;;11.45;7.70;;;;;;;7.92;67.04;62817.69;5086014;28;20217;-80
2022/03/28 01:40:50;;;;;;;10.07;7.45;;;;;;;7.82;67.53;62807.84;5087827;28;20274;-79
2022/03/28 01:43:17;;;;;;;15.23;8.55;;;;;;;7.75;67.94;62798.09;5086727;28;20228;-79
2022/03/28 01:45:44;;;;;;;10.93;8.43;;;;;;;7.73;68.68;62793.00;5105821;28;20418;-79
2022/03/28 01:48:11;;;;;;;12.70;7.57;;;;;;;7.73;68.83;62800.59;5094118;28;20213;-79
2022/03/28 01:50:39;;;;;;;15.15;7.75;;;;;;;7.69;69.10;62793.91;5097255;28;20211;-79
2022/03/28 01:53:07;;;;;;;11.38;7.57;;;;;;;7.72;69.68;62797.00;5089599;28;20224;-79
2022/03/28 01:55:36;;;;;;;11.82;7.28;;;;;;;7.65;69.97;62789.78;5102574;28;20218;-78
2022/03/28 01:58:03;;;;;;;15.95;8.38;;;;;;;7.59;70.56;62784.09;5085084;28;20220;-79
2022/03/28 02:00:32;;;;;;;10.18;7.68;;;;;;;7.54;71.20;62778.44;5104148;28;20242;-79
2022/03/28 02:02:59;;;;;;;13.27;7.28;;;;;;;7.51;71.43;62770.78;5086435;28;20574;-78
2022/03/28 02:05:26;;;;;;;11.70;7.38;;;;;;;7.47;71.46;62768.69;5084445;28;20208;-78
2022/03/28 02:07:52;;;;;;;13.73;6.85;;;;;;;7.32;72.68;62751.19;5089848;28;20219;-79
2022/03/28 02:10:21;;;;;;;15.63;7.45;;;;;;;7.33;73.49;62754.75;5104069;28;20196;-79
2022/03/28 02:12:50;;;;;;;11.57;7.80;;;;;;;7.37;73.34;62758.38;5101119;28;20257;-78
2022/03/28 02:15:18;;;;;;;10.07;6.93;;;;;;;7.31;74.12;62752.16;5106426;28;20469;-79
2022/03/28 02:17:45;;;;;;;11.57;6.55;;;;;;;7.22;74.57;62743.41;5088337;28;20243;-79
2022/03/28 02:20:14;;;;;;;11.80;6.78;;;;;;;7.21;75.42;62746.91;5084811;28;20528;-80
2022/03/28 02:22:43;;;;;;;8.85;6.85;;;;;;;7.16;75.73;62737.22;5084969;28;20216;-79
2022/03/28 02:25:12;;;;;;;14.88;6.90;;;;;;;7.05;77.26;62725.84;5087013;28;20197;-78
2022/03/28 02:27:39;;;;;;;9.35;6.78;;;;;;;7.07;77.33;62730.97;5089205;28;20582;-79
2022/03/28 02:30:10;;;;;;;11.52;7.35;;;;;;;7.11;77.83;62729.50;5088034;28;20205;-80
2022/03/28 02:32:37;;;;;;;9.25;6.82;;;;;;;7.07;78.18;62730.47;5100389;28;20246;-79
2022/03/28 02:35:06;;;;;;;8.63;6.55;;;;;;;7.06;77.95;62728.91;5099845;28;20200;-78
2022/03/28 02:37:33;;;;;;;10.80;7.05;;;;;;;7.01;78.09;62719.72;5089783;28;20225;-78
2022/03/28 02:40:00;;;;;;;6.90;5.20;;;;;;;7.06;77.71;62731.94;5108332;28;20206;-78
2022/03/28 02:42:27;;;;;;;8.90;6.45;;;;;;;7.09;77.96;62729.47;5096870;28;20278;-78
2022/03/28 02:44:54;;;;;;;10.20;6.10;;;;;;;7.11;77.36;62731.53;5090319;28;20227;-80
2022/03/28 02:47:22;;;;;;;11.75;6.00;;;;;;;7.06;77.67;62726.38;5094581;28;20227;-78
2022/03/28 02:49:50;;;;;;;9.32;6.28;;;;;;;7.04;77.79;62727.34;5096260;28;20255;-79
2022/03/28 02:52:17;;;;;;;7.93;5.75;;;;;;;6.98;77.93;62719.16;5104249;28;20224;-78
2022/03/28 02:54:44;;;;;;;7.13;5.72;;;;;;;6.96;77.65;62714.56;5108424;28;20212;-79
2022/03/28 02:57:11;;;;;;;7.50;5.70;;;;;;;6.94;77.60;62717.56;5107613;28;20242;-79
2022/03/28 02:59:38;;;;;;;10.70;5.82;;;;;;;6.87;77.58;62709.81;5107418;28;20204;-80
2022/03/28 03:02:05;;;;;;;8.35;5.80;;;;;;;6.82;77.87;62700.13;5089035;28;20539;-79
2022/03/28 03:04:34;;;;;;;7.68;6.05;;;;;;;6.74;78.65;62698.94;5088857;28;20196;-79
2022/03/28 03:07:02;;;;;;;11.13;5.60;;;;;;;6.70;78.71;62690.25;5107679;28;20207;-80
2022/03/28 03:09:29;;;;;;;10.63;6.25;;;;;;;6.67;78.93;62689.19;5100739;28;20496;-80
2022/03/28 03:11:56;;;;;;;6.97;5.95;;;;;;;6.56;79.45;62677.84;5098940;28;20278;-80
2022/03/28 03:14:24;;;;;;;9.27;5.90;;;;;;;6.57;79.55;62679.41;5100336;28;20247;-80
2022/03/28 03:16:51;;;;;;;7.25;5.70;;;;;;;6.57;79.71;62676.34;5088760;28;20216;-81
2022/03/28 03:19:18;;;;;;;6.00;5.40;;;;;;;6.51;80.54;62670.66;5105034;28;20206;-82
2022/03/28 03:21:47;;;;;;;10.15;6.70;;;;;;;6.51;81.06;62670.66;5090385;28;20224;-80
2022/03/28 03:24:14;;;;;;;11.57;7.20;;;;;;;6.43;81.61;62661.91;5104631;28;20216;-79
2022/03/28 03:26:41;;;;;;;11.77;7.18;;;;;;;6.40;81.87;62659.31;5109242;28;20557;-80
2022/03/28 03:29:08;;;;;;;21.25;8.32;;;;;;;6.43;81.79;62667.50;5105408;28;20208;-79
2022/03/28 03:31:35;;;;;;;9.95;6.45;;;;;;;6.36;81.23;62657.22;5090687;28;20213;-79
2022/03/28 03:34:01;;;;;;;13.25;7.45;;;;;;;6.36;81.75;62652.16;5108415;28;20234;-79
2022/03/28 03:36:29;;;;;;;10.43;7.22;;;;;;;6.34;81.96;62655.16;5106538;28;20238;-80
2022/03/28 03:38:57;;;;;;;10.32;6.70;;;;;;;6.30;81.76;62646.47;5105668;28;20199;-81
2022/03/28 03:41:24;;;;;;;8.23;5.88;;;;;;;6.32;81.98;62650.56;5095591;28;20238;-80
2022/03/28 03:43:51;;;;;;;10.15;5.80;;;;;;;6.32;82.27;62650.56;5086953;28;20192;-81
2022/03/28 03:46:18;;;;;;;8.52;5.53;;;;;;;6.32;81.80;62651.06;5087237;28;20196;-80
2022/03/28 03:48:45;;;;;;;11.00;6.05;;;;;;;6.33;81.91;62654.13;5102517;28;20212;-81
2022/03/28 03:51:13;;;;;;;8.98;6.25;;;;;;;6.33;82.00;62657.19;5093153;28;20201;-79
2022/03/28 03:53:40;;;;;;;6.43;5.07;;;;;;;6.24;82.22;62642.31;5104753;28;20220;-80
2022/03/28 03:56:08;;;;;;;6.43;5.50;;;;;;;6.19;82.54;62637.69;5105452;28;20236;-79
2022/03/28 03:58:35;;;;;;;9.93;5.95;;;;;;;6.21;82.55;62639.22;5106607;28;20235;-79
2022/03/28 04:01:02;;;;;;;9.07;5.70;;;;;;;6.18;81.71;62633.63;5093751;28;20262;-79
2022/03/28 04:03:29;;;;;;;9.52;6.65;;;;;;;6.17;82.19;62630.56;5087097;28;20337;-79
2022/03/28 04:05:56;;;;;;;11.38;6.57;;;;;;;6.10;81.97;62625.88;5087528;28;20212;-79
2022/03/28 04:08:23;;;;;;;12.38;7.03;;;;;;;6.09;82.48;62629.38;5088043;28;20554;-78
2022/03/28 04:10:49;;;;;;;14.30;7.55;;;;;;;6.08;82.39;62623.81;5087420;28;20247;-78
2022/03/28 04:13:18;;;;;;;12.45;7.78;;;;;;;6.04;82.53;62627.25;5085802;28;20220;-80
2022/03/28 04:15:45;;;;;;;12.88;8.02;;;;;;;6.02;82.68;62620.16;5099885;28;20230;-79
2022/03/28 04:18:12;;;;;;;12.68;8.60;;;;;;;6.05;83.02;62622.72;5107773;28;20207;-80
2022/03/28 04:20:39;;;;;;;11.55;7.95;;;;;;;6.05;82.94;62625.25;5096599;28;20204;-78
2022/03/28 04:23:06;;;;;;;10.88;8.02;;;;;;;5.99;83.32;62616.56;5103530;28;20535;-81
2022/03/28 04:25:33;;;;;;;12.48;7.38;;;;;;;6.07;83.53;62620.25;5110948;28;20275;-81
2022/03/28 04:28:00;;;;;;;12.85;7.50;;;;;;;6.06;83.69;62626.81;5111620;28;20219;-79
2022/03/28 04:30:29;;;;;;;10.80;6.88;;;;;;;6.12;83.06;62632.47;5093894;28;20199;-79
2022/03/28 04:32:55;;;;;;;9.05;6.25;;;;;;;6.18;81.59;62638.66;5100766;28;20258;-80
2022/03/28 04:35:22;;;;;;;20.63;5.47;;;;;;;6.13;81.14;62625.91;5091732;28;20200;-80
2022/03/28 04:37:50;;;;;;;11.57;6.20;;;;;;;6.15;81.19;62635.56;5091239;28;20380;-81
2022/03/28 04:40:18;;;;;;;7.75;5.43;;;;;;;6.17;80.18;62638.16;5101028;28;20204;-81
2022/03/28 04:42:45;;;;;;;7.80;5.18;;;;;;;6.27;79.74;62642.88;5106589;28;20252;-79
2022/03/28 04:45:12;;;;;;;6.95;4.70;;;;;;;6.27;79.78;62647.94;5100687;28;20196;-79
2022/03/28 04:47:42;;;;;;;9.32;5.43;;;;;;;6.29;79.54;62650.53;5093136;28;20267;-78
2022/03/28 04:50:10;;;;;;;8.48;5.65;;;;;;;6.35;79.55;62653.66;5097685;28;20339;-79
2022/03/28 04:52:37;;;;;;;6.90;4.88;;;;;;;6.39;79.32;62657.78;5101107;28;20582;-78
2022/03/28 04:55:05;;;;;;;10.90;5.30;;;;;;;6.46;79.83;62667.53;5099224;28;20241;-79
2022/03/28 04:57:32;;;;;;;8.07;5.65;;;;;;;6.49;80.28;62670.63;5097809;28;20219;-79
2022/03/28 04:59:58;;;;;;;8.10;5.55;;;;;;;6.63;79.48;62683.03;5093760;28;20204;-80
2022/03/28 05:02:25;;;;;;;8.57;4.65;;;;;;;6.74;78.74;62694.41;5095250;28;20231;-80
2022/03/28 05:04:54;;;;;;;6.20;4.88;;;;;;;6.87;77.95;62710.31;5110727;28;20203;-79
2022/03/28 05:07:24;;;;;;;11.98;5.35;;;;;;;6.95;77.48;62715.53;5100768;28;20213;-78
2022/03/28 05:09:53;;;;;;;5.40;4.60;;;;;;;7.08;77.00;62728.94;5086294;28;20208;-78
2022/03/28 05:12:20;;;;;;;6.32;4.80;;;;;;;7.32;75.96;62755.72;5085694;28;20235;-78
2022/03/28 05:14:47;;;;;;;7.93;4.85;;;;;;;7.50;74.28;62774.31;5086492;28;20200;-80
2022/03/28 05:17:14;;;;;;;5.70;4.38;;;;;;;7.64;72.66;62788.75;5085029;28;20257;-81
2022/03/28 05:19:40;;;;;;;7.70;5.53;;;;;;;7.87;72.68;62807.44;5103245;28;20208;-84
2022/03/28 05:22:09;;;;;;;8.63;5.20;;;;;;;7.84;74.01;62812.47;5094445;28;20247;-80
2022/03/28 05:24:36;;;;;;;13.20;7.93;;;;;;;7.45;71.94;62767.13;5096524;28;20206;-82
2022/03/28 05:27:03;;;;;;;14.48;9.23;;;;;;;6.93;73.14;62716.00;5096106;28;20212;-80
2022/03/28 05:29:30;;;;;;;21.00;9.30;;;;;;;6.79;74.68;62699.56;5110773;28;20212;-81
2022/03/28 05:32:01;;;;;;;23.20;10.07;;;;;;;6.74;75.09;62691.34;5115818;28;20216;-82
2022/03/28 05:34:30;;;;;;;20.48;9.68;;;;;;;6.88;74.51;62713.38;5106265;28;20208;-81
2022/03/28 05:36:58;;;;;;;23.70;9.07;;;;;;;7.01;73.21;62721.72;5102333;28;20216;-81
2022/03/28 05:39:27;;;;;;;16.02;8.90;;;;;;;6.76;74.31;62693.41;5098903;28;20204;-82
2022/03/28 05:44:51;;;;;;;16.35;10.57;;;;;;;7.09;73.45;62732.53;5291774;23;20322;-82
2022/03/28 05:50:10;;;;;;;15.30;10.10;;;;;;;7.50;72.31;62774.84;5101203;28;20226;-82
2022/03/28 05:52:37;;;;;;;19.83;10.45;;;;;;;7.67;71.20;62797.44;5099195;28;20216;-81
2022/03/28 05:55:08;;;;;;;16.25;9.40;;;;;;;7.85;69.75;62808.41;5105954;28;20223;-81
2022/03/28 05:57:35;;;;;;;17.15;9.48;;;;;;;8.03;68.86;62829.53;5095304;28;20284;-81
2022/03/28 06:00:04;;;;;;;23.88;11.27;;;;;;;8.23;67.63;62849.16;5108037;28;20255;-82
2022/03/28 06:02:32;;;;;;;23.60;11.85;;;;;;;8.33;67.40;62862.56;5106368;28;20240;-80
2022/03/28 06:04:59;;;;;;;18.80;12.43;;;;;;;8.45;67.67;62874.97;5119973;28;20226;-81
2022/03/28 06:07:31;;;;;;;24.90;13.55;;;;;;;8.38;67.63;62862.66;5107372;28;20272;-82
2022/03/28 06:10:08;;;;;;;18.35;12.95;;;;;;;8.44;68.29;62873.44;5098941;28;20199;-83
2022/03/28 06:12:35;;;;;;;18.33;13.15;;;;;;;8.54;68.85;62881.22;5099708;28;20216;-80
2022/03/28 06:15:02;;;;;;;22.20;12.57;;;;;;;8.62;68.33;62887.47;5099186;28;20192;-82
2022/03/28 06:17:29;;;;;;;15.38;10.48;;;;;;;8.84;67.79;62910.19;5114622;28;20216;-82
2022/03/28 06:19:56;;;;;;;17.08;9.13;;;;;;;9.11;66.83;62937.59;5104643;28;20489;-82
2022/03/28 06:22:23;;;;;;;11.02;7.88;;;;;;;9.34;65.97;62961.88;5091699;28;20270;-83
2022/03/28 06:24:50;;;;;;;15.30;8.35;;;;;;;9.58;65.74;62991.25;5092222;28;20204;-82
2022/03/28 06:27:23;;;;;;;14.70;7.55;;;;;;;9.79;64.27;63005.34;5093588;28;20221;-81
2022/03/28 06:29:51;;;;;;;14.57;7.03;;;;;;;9.89;62.42;63022.78;5107633;28;20221;-83
2022/03/28 06:32:37;;;;;;;15.18;6.80;;;;;;;9.93;61.77;63024.38;5116166;28;20216;-81
2022/03/28 06:35:05;;;;;;;11.50;7.68;;;;;;;10.07;61.17;63036.84;5109784;28;20231;-81
2022/03/28 06:37:32;;;;;;;10.88;7.20;;;;;;;10.13;61.15;63045.63;5102467;28;20270;-82
2022/03/28 06:39:59;;;;;;;51.05;35.22;;;;;;;9.94;61.28;63031.03;5092261;28;20197;-83
2022/03/28 06:42:28;;;;;;;16.02;8.70;;;;;;;9.91;60.65;63022.31;5091650;28;20232;-82
2022/03/28 06:44:55;;;;;;;9.25;7.30;;;;;;;9.96;60.59;63030.03;5104358;28;20238;-81
2022/03/28 06:47:22;;;;;;;10.40;6.97;;;;;;;10.15;59.25;63047.16;5095006;28;20220;-82
2022/03/28 06:49:49;;;;;;;15.02;7.15;;;;;;;10.10;59.80;63042.53;5094379;28;20248;-81
2022/03/28 06:52:16;;;;;;;9.65;6.80;;;;;;;10.29;58.04;63059.63;5098668;28;20222;-82
2022/03/28 06:54:43;;;;;;;13.98;7.25;;;;;;;10.45;57.25;63076.19;5099145;28;20202;-81
2022/03/28 07:00:19;;;;;;;10.63;7.82;;;;;;;10.60;56.92;63096.28;5147878;22;20241;-81
2022/03/28 07:02:46;;;;;;;13.32;7.50;;;;;;;10.64;56.60;63097.38;5061849;28;20526;-81
2022/03/28 07:05:13;;;;;;;14.23;6.90;;;;;;;10.79;56.00;63110.88;5063914;28;20212;-81
2022/03/28 07:07:42;;;;;;;13.48;7.55;;;;;;;10.90;55.60;63126.81;5075439;28;20293;-81
2022/03/28 07:10:11;;;;;;;10.15;7.03;;;;;;;10.94;55.47;63128.44;5055169;28;20446;-81
2022/03/28 07:12:42;;;;;;;11.15;7.45;;;;;;;10.91;55.50;63123.28;5067380;28;20225;-82
2022/03/28 07:15:11;;;;;;;8.15;6.72;;;;;;;10.93;55.86;63127.38;5067677;28;20201;-80
2022/03/28 07:17:52;;;;;;;10.90;7.10;;;;;;;11.01;55.86;63136.19;5069242;28;20221;-81
2022/03/28 07:20:19;;;;;;;12.52;7.22;;;;;;;10.79;55.91;63115.97;5068169;28;20264;-81
2022/03/28 07:22:46;;;;;;;9.00;7.85;;;;;;;11.04;56.13;63136.75;5065546;28;20232;-82
2022/03/28 07:25:14;;;;;;;13.35;7.43;;;;;;;11.32;55.73;63168.28;5066574;28;20233;-83
2022/03/28 07:27:42;;;;;;;10.63;7.75;;;;;;;11.42;55.45;63176.09;5066510;28;20276;-81
2022/03/28 07:30:10;;;;;;;17.33;8.55;;;;;;;11.38;54.81;63168.88;5066490;28;20228;-80
2022/03/28 07:32:38;;;;;;;11.57;7.75;;;;;;;11.46;55.04;63185.34;5068867;28;20236;-80
2022/03/28 07:35:10;;;;;;;8.30;7.20;;;;;;;11.52;55.29;63191.56;5072321;28;20201;-81
2022/03/28 07:37:39;;;;;;;14.95;8.23;;;;;;;11.47;55.26;63185.88;5074141;28;20288;-82
2022/03/28 07:40:12;;;;;;;11.63;7.40;;;;;;;11.53;54.63;63184.41;5058161;28;20261;-81
2022/03/28 07:42:40;;;;;;;9.55;7.45;;;;;;;11.68;53.92;63207.13;5057128;28;20236;-82
2022/03/28 07:45:08;;;;;;;12.13;8.65;;;;;;;11.75;53.34;63211.81;5070298;28;20201;-82
2022/03/28 07:47:36;;;;;;;14.73;9.02;;;;;;;11.82;53.69;63219.09;5069305;28;20217;-81
2022/03/28 07:50:04;;;;;;;13.73;8.13;;;;;;;11.92;54.17;63229.97;5069321;28;20224;-80
2022/03/28 07:52:33;;;;;;;11.57;8.75;;;;;;;12.05;53.41;63242.91;5055951;28;20301;-81
2022/03/28 07:55:00;;;;;;;11.10;7.97;;;;;;;12.14;53.74;63252.75;5051531;28;20201;-80
2022/03/28 07:57:28;;;;;;;16.60;7.97;;;;;;;12.25;52.91;63268.75;5066806;28;20217;-80
2022/03/28 07:59:55;;;;;;;13.45;8.18;;;;;;;12.52;52.13;63292.16;5068316;28;20239;-79
2022/03/28 08:02:24;;;;;;;10.32;7.90;;;;;;;12.76;51.86;63313.97;5068886;28;20304;-80
2022/03/28 08:04:51;;;;;;;15.02;8.00;;;;;;;12.92;51.50;63330.56;5067167;28;20213;-79
2022/03/28 08:07:18;;;;;;;12.38;7.68;;;;;;;12.99;50.71;63339.84;5068756;28;20223;-83
2022/03/28 08:09:46;;;;;;;16.20;8.43;;;;;;;13.09;49.47;63352.81;5071071;28;20190;-80
2022/03/28 08:12:14;;;;;;;9.93;7.80;;;;;;;13.01;49.37;63342.44;5071544;28;20221;-81
2022/03/28 08:14:41;;;;;;;11.52;7.82;;;;;;;12.90;50.60;63331.03;5069975;28;20536;-79
2022/03/28 08:17:08;;;;;;;12.95;8.75;;;;;;;13.15;50.19;63359.53;5072935;28;20619;-80
2022/03/28 08:19:35;;;;;;;13.98;8.55;;;;;;;13.09;49.77;63350.25;5071594;28;20231;-79
2022/03/28 08:22:02;;;;;;;13.57;7.82;;;;;;;13.14;50.31;63355.44;5067847;28;20229;-81
2022/03/28 08:24:29;;;;;;;14.05;8.45;;;;;;;13.40;49.54;63384.97;5070187;28;20213;-80
2022/03/28 08:26:57;;;;;;;14.65;8.95;;;;;;;13.49;48.96;63391.75;5071619;28;20240;-80
2022/03/28 08:29:24;;;;;;;14.02;10.02;;;;;;;13.48;48.83;63388.66;5071976;28;20193;-80
2022/03/28 08:31:51;;;;;;;10.52;8.80;;;;;;;13.49;48.60;63392.28;5072041;28;20229;-79
2022/03/28 08:34:19;;;;;;;14.82;9.80;;;;;;;13.49;48.97;63389.19;5071805;28;20434;-80
2022/03/28 08:36:47;;;;;;;14.45;8.70;;;;;;;13.63;48.19;63408.84;5073210;28;20221;-80
2022/03/28 08:39:13;;;;;;;14.98;9.23;;;;;;;13.68;48.35;63411.97;5071772;28;20198;-81
2022/03/28 08:41:42;;;;;;;13.40;8.15;;;;;;;13.82;47.08;63429.06;5069236;28;20193;-80
2022/03/28 08:44:10;;;;;;;11.98;8.32;;;;;;;13.77;47.11;63413.13;5073172;28;20247;-80
2022/03/28 08:46:42;;;;;;;14.13;8.50;;;;;;;13.89;47.42;63433.78;5068797;28;20198;-81
2022/03/28 08:49:10;;;;;;;14.05;8.93;;;;;;;13.99;47.96;63441.09;5072350;28;20197;-81
2022/03/28 08:51:37;;;;;;;11.40;7.63;;;;;;;14.19;47.36;63461.84;5071328;28;20216;-80
2022/03/28 08:54:04;;;;;;;13.93;8.55;;;;;;;14.26;46.81;63474.25;5071435;28;20205;-81
2022/03/28 08:56:31;;;;;;;12.05;9.02;;;;;;;14.26;47.16;63469.13;5070249;28;20194;-82
2022/03/28 08:58:58;;;;;;;14.10;9.73;;;;;;;14.29;46.97;63474.81;5072840;28;20193;-82
2022/03/28 09:01:27;;;;;;;17.20;10.00;;;;;;;14.43;46.57;63489.34;5069831;28;20378;-79
2022/03/28 09:03:54;;;;;;;15.13;10.10;;;;;;;14.51;46.81;63500.22;5063899;28;20435;-79
2022/03/28 09:06:31;;;;;;;17.63;10.45;;;;;;;14.72;46.44;63521.53;5066353;28;20200;-81
2022/03/28 09:09:13;;;;;;;17.90;10.75;;;;;;;14.82;44.86;63527.28;5065735;28;20227;-79
2022/03/28 09:11:42;;;;;;;15.35;9.65;;;;;;;14.77;45.26;63524.16;5067997;28;20208;-79
2022/03/28 09:14:12;;;;;;;15.10;9.98;;;;;;;14.61;45.15;63504.97;5072422;28;20199;-80
2022/03/28 09:16:41;;;;;;;15.43;10.32;;;;;;;14.59;44.99;63505.97;5066902;28;20208;-79
2022/03/28 09:19:10;;;;;;;16.17;9.98;;;;;;;14.84;45.43;63529.38;5067080;28;20215;-79
2022/03/28 09:21:37;;;;;;;22.85;9.80;;;;;;;14.95;45.34;63540.28;5067182;28;20207;-78
2022/03/28 09:24:09;;;;;;;14.13;8.98;;;;;;;15.19;44.73;63567.78;5064460;28;20240;-80
2022/03/28 09:26:36;;;;;;;16.42;9.65;;;;;;;15.37;44.96;63589.06;5068903;28;20215;-77
2022/03/28 09:29:06;;;;;;;15.85;9.15;;;;;;;15.14;44.84;63556.94;5065954;28;20205;-79
2022/03/28 09:31:34;;;;;;;11.60;8.98;;;;;;;15.14;45.19;63556.94;5080452;28;20497;-78
2022/03/28 09:34:13;;;;;;;19.55;10.50;;;;;;;15.03;45.05;63549.13;5067608;28;20227;-78
2022/03/28 09:36:45;;;;;;;17.50;10.07;;;;;;;14.93;44.95;63538.19;5068685;28;20208;-78
2022/03/28 09:39:17;;;;;;;15.48;9.77;;;;;;;15.25;44.94;63576.06;5058915;28;20197;-78
2022/03/28 09:41:59;;;;;;;12.98;10.43;;;;;;;15.29;44.99;63577.66;5049494;28;20212;-77
2022/03/28 09:44:34;;;;;;;14.98;8.63;;;;;;;15.60;44.29;63609.91;5048444;28;20483;-78
2022/03/28 09:47:06;;;;;;;16.75;10.07;;;;;;;15.37;43.96;63589.06;5050436;28;20252;-78
2022/03/28 09:49:35;;;;;;;16.90;10.00;;;;;;;15.52;45.21;63601.56;5069948;28;20363;-79
2022/03/28 09:52:08;;;;;;;24.83;10.25;;;;;;;15.66;43.82;63616.66;5069598;28;20217;-78
2022/03/28 09:54:51;;;;;;;15.55;10.00;;;;;;;15.89;43.17;63640.06;5048541;28;20197;-78
2022/03/28 09:57:20;;;;;;;15.13;9.98;;;;;;;16.13;43.11;63662.94;5056263;28;20224;-78
2022/03/28 09:59:48;;;;;;;18.30;10.70;;;;;;;16.29;42.77;63681.66;5065217;28;20208;-78
2022/03/28 10:02:21;;;;;;;15.73;9.50;;;;;;;16.53;41.55;63706.13;5065223;28;20220;-77
2022/03/28 10:04:51;;;;;;;15.35;9.70;;;;;;;16.13;42.42;63667.59;5067370;28;20181;-78
2022/03/28 10:07:19;;;;;;;15.43;9.05;;;;;;;16.45;41.25;63700.88;5065456;28;20301;-77
2022/03/28 10:09:46;;;;;;;21.98;9.93;;;;;;;16.49;41.30;63705.06;5067580;28;20386;-78
2022/03/28 10:12:14;;;;;;;15.18;8.98;;;;;;;16.18;41.62;63670.22;5066276;28;20216;-78
2022/03/28 10:14:42;;;;;;;16.02;9.57;;;;;;;15.89;41.56;63637.50;5064985;28;20201;-77
2022/03/28 10:17:09;;;;;;;15.02;8.77;;;;;;;15.81;41.30;63629.69;5066812;28;20390;-77
2022/03/28 10:19:38;;;;;;;12.43;8.93;;;;;;;15.91;41.53;63644.72;5068014;28;20264;-80
2022/03/28 10:22:11;;;;;;;12.98;9.00;;;;;;;16.19;41.40;63671.25;5071668;28;20545;-78
2022/03/28 10:24:42;;;;;;;18.98;10.15;;;;;;;16.21;41.62;63673.31;5067919;28;20228;-77
2022/03/28 10:27:11;;;;;;;12.35;8.45;;;;;;;16.36;41.24;63691.50;5067832;28;20352;-79
2022/03/28 10:29:40;;;;;;;10.88;7.85;;;;;;;16.22;41.54;63676.94;5067404;28;20424;-77
2022/03/28 10:32:14;;;;;;;12.30;7.88;;;;;;;16.39;42.06;63683.81;5064863;28;20447;-78
2022/03/28 10:34:43;;;;;;;13.00;8.65;;;;;;;16.82;40.61;63736.28;5061538;28;20196;-78
2022/03/28 10:37:29;;;;;;;11.88;8.18;;;;;;;17.03;40.69;63758.16;5067079;28;20255;-78
2022/03/28 10:40:31;;;;;;;11.95;8.38;;;;;;;16.93;40.25;63750.84;5062587;28;20197;-78
2022/03/28 10:43:17;;;;;;;16.80;9.25;;;;;;;16.97;40.19;63754.47;5066841;28;20297;-79
2022/03/28 10:45:48;;;;;;;12.23;8.48;;;;;;;17.43;39.38;63797.22;5060903;28;20196;-78
2022/03/28 10:48:15;;;;;;;11.50;8.13;;;;;;;17.68;39.37;63825.84;5067722;28;20229;-78
2022/03/28 10:50:48;;;;;;;12.65;7.75;;;;;;;17.71;38.29;63828.44;5065646;28;20224;-78
2022/03/28 10:53:19;;;;;;;17.05;8.38;;;;;;;17.74;37.51;63829.50;5064980;28;20221;-79
2022/03/28 10:55:48;;;;;;;12.93;8.05;;;;;;;17.15;38.29;63771.16;5066610;28;20458;-79
2022/03/28 10:58:21;;;;;;;10.68;7.97;;;;;;;17.24;39.29;63780.53;5064961;28;20221;-77
2022/03/28 11:01:25;;;;;;;14.55;8.57;;;;;;;17.18;39.10;63774.28;5046596;28;20209;-78
2022/03/28 11:03:54;;;;;;;10.20;7.90;;;;;;;17.81;38.19;63839.38;5015882;28;20228;-79
2022/03/28 11:06:42;;;;;;;11.70;7.65;;;;;;;18.04;37.64;63862.81;5051301;28;20224;-79
2022/03/28 11:09:11;;;;;;;10.73;8.00;;;;;;;17.58;38.34;63815.44;5066508;28;20243;-77
2022/03/28 11:11:55;;;;;;;13.80;7.80;;;;;;;17.80;39.27;63837.81;5066896;28;20501;-78
2022/03/28 11:14:39;;;;;;;13.02;7.97;;;;;;;17.98;38.64;63864.81;5066334;28;20397;-78
2022/03/28 11:17:15;;;;;;;15.43;8.85;;;;;;;17.97;38.58;63852.94;5068794;28;20217;-77
2022/03/28 11:20:00;;;;;;;11.30;8.55;;;;;;;17.99;38.61;63855.56;5074106;28;20199;-79
2022/03/28 11:22:41;;;;;;;14.98;9.13;;;;;;;18.27;37.51;63887.28;5082697;28;20227;-79
2022/03/28 11:25:35;;;;;;;12.40;7.93;;;;;;;18.40;36.99;63902.91;5074487;28;20197;-78
2022/03/28 11:28:04;;;;;;;10.75;7.57;;;;;;;18.43;36.70;63906.56;5069443;28;20224;-78
2022/03/28 11:30:31;;;;;;;9.25;7.57;;;;;;;18.51;36.53;63913.84;5067874;28;20205;-78
2022/03/28 11:32:59;;;;;;;11.55;6.53;;;;;;;18.47;37.07;63899.38;5065924;28;20235;-78
2022/03/28 11:35:28;;;;;;;11.85;7.43;;;;;;;18.63;36.47;63928.94;5068765;28;20259;-78
2022/03/28 11:38:07;;;;;;;15.48;7.15;;;;;;;18.62;35.72;63920.69;5068768;28;20540;-78
2022/03/28 11:40:40;;;;;;;12.75;7.68;;;;;;;18.35;36.52;63893.06;5067082;28;20203;-79
2022/03/28 11:43:09;;;;;;;11.80;7.38;;;;;;;18.13;37.44;63872.72;5069663;28;20248;-80
2022/03/28 11:45:37;;;;;;;15.27;7.93;;;;;;;18.13;37.23;63870.13;5068111;28;20496;-80
2022/03/28 11:48:04;;;;;;;13.85;8.07;;;;;;;18.28;37.30;63885.75;5066345;28;20294;-78